sensor_id;sensor_type;location;lat;lon;timestamp;P1;durP1;ratioP1;P2;durP2;ratioP2
69892;SDS011;61212;42.688;22.176;2023-01-15T00:02:22;85.10;;;47.05;;
69892;SDS011;61212;42.688;22.176;2023-01-15T00:04:51;85.28;;;45.67;;
69892;SDS011;61212;42.688;22.176;2023-01-15T00:07:17;108.28;;;55.35;;
69892;SDS011;61212;42.688;22.176;2023-01-15T00:09:43;96.80;;;49.67;;
69892;SDS011;61212;42.688;22.176;2023-01-15T00:12:09;94.03;;;48.53;;
69892;SDS011;61212;42.688;22.176;2023-01-15T00:14:35;94.30;;;47.53;;
69892;SDS011;61212;42.688;22.176;2023-01-15T00:17:01;75.65;;;42.33;;
69892;SDS011;61212;42.688;22.176;2023-01-15T00:19:27;81.13;;;45.15;;
69892;SDS011;61212;42.688;22.176;2023-01-15T00:21:53;103.13;;;55.40;;
69892;SDS011;61212;42.688;22.176;2023-01-15T00:24:20;132.27;;;68.00;;
69892;SDS011;61212;42.688;22.176;2023-01-15T00:27:04;136.48;;;66.25;;
69892;SDS011;61212;42.688;22.176;2023-01-15T00:29:49;109.55;;;58.75;;
69892;SDS011;61212;42.688;22.176;2023-01-15T00:32:15;90.57;;;50.05;;
69892;SDS011;61212;42.688;22.176;2023-01-15T00:34:41;95.38;;;52.00;;
69892;SDS011;61212;42.688;22.176;2023-01-15T00:37:07;89.28;;;47.60;;
69892;SDS011;61212;42.688;22.176;2023-01-15T00:39:40;95.22;;;46.42;;
69892;SDS011;61212;42.688;22.176;2023-01-15T00:42:26;88.55;;;44.78;;
69892;SDS011;61212;42.688;22.176;2023-01-15T00:44:52;81.28;;;45.47;;
69892;SDS011;61212;42.688;22.176;2023-01-15T00:47:18;94.32;;;50.22;;
69892;SDS011;61212;42.688;22.176;2023-01-15T00:49:44;89.00;;;46.42;;
69892;SDS011;61212;42.688;22.176;2023-01-15T00:52:11;83.20;;;43.45;;
69892;SDS011;61212;42.688;22.176;2023-01-15T00:54:37;86.22;;;45.60;;
69892;SDS011;61212;42.688;22.176;2023-01-15T00:57:04;100.75;;;50.67;;
69892;SDS011;61212;42.688;22.176;2023-01-15T00:59:30;89.70;;;48.47;;
69892;SDS011;61212;42.688;22.176;2023-01-15T01:01:58;100.38;;;48.00;;
69892;SDS011;61212;42.688;22.176;2023-01-15T01:07:30;90.60;;;47.17;;
69892;SDS011;61212;42.688;22.176;2023-01-15T01:09:57;93.57;;;48.22;;
69892;SDS011;61212;42.688;22.176;2023-01-15T01:12:23;94.60;;;49.67;;
69892;SDS011;61212;42.688;22.176;2023-01-15T01:14:51;99.85;;;51.40;;
69892;SDS011;61212;42.688;22.176;2023-01-15T01:17:17;117.55;;;57.08;;
69892;SDS011;61212;42.688;22.176;2023-01-15T01:19:43;113.18;;;57.55;;
69892;SDS011;61212;42.688;22.176;2023-01-15T01:22:09;123.22;;;64.90;;
69892;SDS011;61212;42.688;22.176;2023-01-15T01:24:35;124.70;;;63.80;;
69892;SDS011;61212;42.688;22.176;2023-01-15T01:27:01;119.72;;;61.40;;
69892;SDS011;61212;42.688;22.176;2023-01-15T01:29:27;124.85;;;64.38;;
69892;SDS011;61212;42.688;22.176;2023-01-15T01:31:53;146.75;;;70.82;;
69892;SDS011;61212;42.688;22.176;2023-01-15T01:34:32;132.35;;;66.63;;
69892;SDS011;61212;42.688;22.176;2023-01-15T01:36:58;145.45;;;70.10;;
69892;SDS011;61212;42.688;22.176;2023-01-15T01:39:24;122.43;;;62.92;;
69892;SDS011;61212;42.688;22.176;2023-01-15T01:41:50;113.05;;;56.65;;
69892;SDS011;61212;42.688;22.176;2023-01-15T01:47:23;85.47;;;46.75;;
69892;SDS011;61212;42.688;22.176;2023-01-15T01:50:11;96.35;;;48.38;;
69892;SDS011;61212;42.688;22.176;2023-01-15T01:52:41;98.82;;;47.55;;
69892;SDS011;61212;42.688;22.176;2023-01-15T01:55:09;100.03;;;51.97;;
69892;SDS011;61212;42.688;22.176;2023-01-15T01:57:39;125.60;;;63.55;;
69892;SDS011;61212;42.688;22.176;2023-01-15T02:00:06;118.07;;;59.60;;
69892;SDS011;61212;42.688;22.176;2023-01-15T02:02:32;121.75;;;60.13;;
69892;SDS011;61212;42.688;22.176;2023-01-15T02:04:58;107.65;;;56.00;;
69892;SDS011;61212;42.688;22.176;2023-01-15T02:07:24;102.43;;;53.75;;
69892;SDS011;61212;42.688;22.176;2023-01-15T02:09:51;162.32;;;84.18;;
69892;SDS011;61212;42.688;22.176;2023-01-15T02:14:48;112.28;;;58.35;;
69892;SDS011;61212;42.688;22.176;2023-01-15T02:17:19;116.10;;;60.08;;
69892;SDS011;61212;42.688;22.176;2023-01-15T02:22:28;114.53;;;58.00;;
69892;SDS011;61212;42.688;22.176;2023-01-15T02:27:43;118.40;;;61.47;;
69892;SDS011;61212;42.688;22.176;2023-01-15T02:30:17;130.95;;;62.47;;
69892;SDS011;61212;42.688;22.176;2023-01-15T02:32:49;140.65;;;69.30;;
69892;SDS011;61212;42.688;22.176;2023-01-15T02:35:22;111.47;;;55.30;;
69892;SDS011;61212;42.688;22.176;2023-01-15T02:37:51;101.75;;;52.15;;
69892;SDS011;61212;42.688;22.176;2023-01-15T02:40:18;96.53;;;50.47;;
69892;SDS011;61212;42.688;22.176;2023-01-15T02:42:48;92.05;;;48.83;;
69892;SDS011;61212;42.688;22.176;2023-01-15T02:45:20;98.50;;;48.25;;
69892;SDS011;61212;42.688;22.176;2023-01-15T02:47:48;94.90;;;48.50;;
69892;SDS011;61212;42.688;22.176;2023-01-15T02:53:02;97.38;;;44.83;;
69892;SDS011;61212;42.688;22.176;2023-01-15T02:55:32;90.65;;;47.55;;
69892;SDS011;61212;42.688;22.176;2023-01-15T02:58:01;89.13;;;48.70;;
69892;SDS011;61212;42.688;22.176;2023-01-15T03:00:30;91.45;;;44.88;;
69892;SDS011;61212;42.688;22.176;2023-01-15T03:02:59;81.78;;;43.63;;
69892;SDS011;61212;42.688;22.176;2023-01-15T03:05:27;157.88;;;84.78;;
69892;SDS011;61212;42.688;22.176;2023-01-15T03:07:56;118.93;;;62.33;;
69892;SDS011;61212;42.688;22.176;2023-01-15T03:10:27;99.50;;;51.00;;
69892;SDS011;61212;42.688;22.176;2023-01-15T03:12:57;104.00;;;53.13;;
69892;SDS011;61212;42.688;22.176;2023-01-15T03:15:42;87.32;;;46.67;;
69892;SDS011;61212;42.688;22.176;2023-01-15T03:18:32;87.72;;;44.13;;
69892;SDS011;61212;42.688;22.176;2023-01-15T03:21:02;87.50;;;44.28;;
69892;SDS011;61212;42.688;22.176;2023-01-15T03:23:29;87.55;;;44.20;;
69892;SDS011;61212;42.688;22.176;2023-01-15T03:25:59;88.25;;;44.30;;
69892;SDS011;61212;42.688;22.176;2023-01-15T03:28:27;78.20;;;42.25;;
69892;SDS011;61212;42.688;22.176;2023-01-15T03:30:57;104.47;;;50.42;;
69892;SDS011;61212;42.688;22.176;2023-01-15T03:33:23;94.78;;;48.13;;
69892;SDS011;61212;42.688;22.176;2023-01-15T03:35:54;100.03;;;49.28;;
69892;SDS011;61212;42.688;22.176;2023-01-15T03:38:23;104.55;;;51.83;;
69892;SDS011;61212;42.688;22.176;2023-01-15T03:40:57;94.15;;;48.03;;
69892;SDS011;61212;42.688;22.176;2023-01-15T03:43:31;95.13;;;46.95;;
69892;SDS011;61212;42.688;22.176;2023-01-15T03:46:07;89.70;;;45.75;;
69892;SDS011;61212;42.688;22.176;2023-01-15T03:48:38;103.28;;;50.83;;
69892;SDS011;61212;42.688;22.176;2023-01-15T03:51:13;87.90;;;45.72;;
69892;SDS011;61212;42.688;22.176;2023-01-15T03:53:44;87.68;;;46.08;;
69892;SDS011;61212;42.688;22.176;2023-01-15T03:58:50;90.90;;;45.13;;
69892;SDS011;61212;42.688;22.176;2023-01-15T04:01:18;91.18;;;47.05;;
69892;SDS011;61212;42.688;22.176;2023-01-15T04:03:46;93.45;;;49.85;;
69892;SDS011;61212;42.688;22.176;2023-01-15T04:06:14;94.03;;;46.20;;
69892;SDS011;61212;42.688;22.176;2023-01-15T04:08:42;92.57;;;46.20;;
69892;SDS011;61212;42.688;22.176;2023-01-15T04:11:10;88.78;;;44.47;;
69892;SDS011;61212;42.688;22.176;2023-01-15T04:13:37;84.80;;;43.70;;
69892;SDS011;61212;42.688;22.176;2023-01-15T04:16:04;98.75;;;47.05;;
69892;SDS011;61212;42.688;22.176;2023-01-15T04:18:30;91.25;;;47.60;;
69892;SDS011;61212;42.688;22.176;2023-01-15T04:24:11;106.88;;;51.33;;
69892;SDS011;61212;42.688;22.176;2023-01-15T04:26:38;91.70;;;46.38;;
69892;SDS011;61212;42.688;22.176;2023-01-15T04:29:04;99.78;;;48.53;;
69892;SDS011;61212;42.688;22.176;2023-01-15T04:31:31;90.70;;;48.97;;
69892;SDS011;61212;42.688;22.176;2023-01-15T04:33:57;92.70;;;47.30;;
69892;SDS011;61212;42.688;22.176;2023-01-15T04:36:23;88.10;;;43.50;;
69892;SDS011;61212;42.688;22.176;2023-01-15T04:38:50;88.30;;;44.35;;
69892;SDS011;61212;42.688;22.176;2023-01-15T04:41:16;86.40;;;45.13;;
69892;SDS011;61212;42.688;22.176;2023-01-15T04:44:00;101.72;;;46.80;;
69892;SDS011;61212;42.688;22.176;2023-01-15T04:46:33;92.13;;;47.15;;
69892;SDS011;61212;42.688;22.176;2023-01-15T04:49:00;84.13;;;46.20;;
69892;SDS011;61212;42.688;22.176;2023-01-15T04:51:26;91.63;;;47.38;;
69892;SDS011;61212;42.688;22.176;2023-01-15T04:53:52;96.90;;;46.42;;
69892;SDS011;61212;42.688;22.176;2023-01-15T04:56:18;86.35;;;46.38;;
69892;SDS011;61212;42.688;22.176;2023-01-15T04:58:44;90.15;;;48.15;;
69892;SDS011;61212;42.688;22.176;2023-01-15T05:01:11;86.38;;;44.20;;
69892;SDS011;61212;42.688;22.176;2023-01-15T05:03:37;89.40;;;45.85;;
69892;SDS011;61212;42.688;22.176;2023-01-15T05:06:04;102.68;;;47.55;;
69892;SDS011;61212;42.688;22.176;2023-01-15T05:08:30;93.53;;;48.78;;
69892;SDS011;61212;42.688;22.176;2023-01-15T05:11:00;93.85;;;44.33;;
69892;SDS011;61212;42.688;22.176;2023-01-15T05:13:26;90.68;;;46.80;;
69892;SDS011;61212;42.688;22.176;2023-01-15T05:15:54;89.13;;;45.25;;
69892;SDS011;61212;42.688;22.176;2023-01-15T05:18:20;83.18;;;43.78;;
69892;SDS011;61212;42.688;22.176;2023-01-15T05:20:46;84.40;;;43.97;;
69892;SDS011;61212;42.688;22.176;2023-01-15T05:23:12;87.47;;;47.40;;
69892;SDS011;61212;42.688;22.176;2023-01-15T05:25:38;95.75;;;46.67;;
69892;SDS011;61212;42.688;22.176;2023-01-15T05:28:04;107.10;;;50.45;;
69892;SDS011;61212;42.688;22.176;2023-01-15T05:30:30;98.88;;;48.80;;
69892;SDS011;61212;42.688;22.176;2023-01-15T05:32:56;103.35;;;49.88;;
69892;SDS011;61212;42.688;22.176;2023-01-15T05:35:22;99.80;;;51.15;;
69892;SDS011;61212;42.688;22.176;2023-01-15T05:37:48;101.68;;;50.50;;
69892;SDS011;61212;42.688;22.176;2023-01-15T05:40:15;99.88;;;49.08;;
69892;SDS011;61212;42.688;22.176;2023-01-15T05:42:41;102.05;;;47.78;;
69892;SDS011;61212;42.688;22.176;2023-01-15T05:45:07;81.00;;;43.47;;
69892;SDS011;61212;42.688;22.176;2023-01-15T05:47:36;97.47;;;51.75;;
69892;SDS011;61212;42.688;22.176;2023-01-15T05:52:56;92.40;;;48.35;;
69892;SDS011;61212;42.688;22.176;2023-01-15T05:55:22;87.43;;;46.40;;
69892;SDS011;61212;42.688;22.176;2023-01-15T05:57:48;96.93;;;47.60;;
69892;SDS011;61212;42.688;22.176;2023-01-15T06:00:15;95.78;;;50.60;;
69892;SDS011;61212;42.688;22.176;2023-01-15T06:02:41;98.03;;;48.63;;
69892;SDS011;61212;42.688;22.176;2023-01-15T06:05:08;101.60;;;51.10;;
69892;SDS011;61212;42.688;22.176;2023-01-15T06:10:38;98.88;;;50.55;;
69892;SDS011;61212;42.688;22.176;2023-01-15T06:13:04;120.30;;;61.35;;
69892;SDS011;61212;42.688;22.176;2023-01-15T06:15:30;134.55;;;67.30;;
69892;SDS011;61212;42.688;22.176;2023-01-15T06:17:56;128.30;;;63.80;;
69892;SDS011;61212;42.688;22.176;2023-01-15T06:20:22;100.43;;;54.45;;
69892;SDS011;61212;42.688;22.176;2023-01-15T06:22:48;102.93;;;51.42;;
69892;SDS011;61212;42.688;22.176;2023-01-15T06:25:16;92.00;;;48.63;;
69892;SDS011;61212;42.688;22.176;2023-01-15T06:27:44;103.07;;;54.47;;
69892;SDS011;61212;42.688;22.176;2023-01-15T06:30:12;107.38;;;53.63;;
69892;SDS011;61212;42.688;22.176;2023-01-15T06:32:38;113.40;;;56.53;;
69892;SDS011;61212;42.688;22.176;2023-01-15T06:35:05;103.40;;;50.70;;
69892;SDS011;61212;42.688;22.176;2023-01-15T06:37:32;113.47;;;54.22;;
69892;SDS011;61212;42.688;22.176;2023-01-15T06:40:00;90.85;;;47.75;;
69892;SDS011;61212;42.688;22.176;2023-01-15T06:42:28;104.05;;;53.45;;
69892;SDS011;61212;42.688;22.176;2023-01-15T06:45:13;107.85;;;58.97;;
69892;SDS011;61212;42.688;22.176;2023-01-15T06:47:58;107.95;;;60.22;;
69892;SDS011;61212;42.688;22.176;2023-01-15T06:50:27;99.55;;;53.55;;
69892;SDS011;61212;42.688;22.176;2023-01-15T06:53:04;95.43;;;48.28;;
69892;SDS011;61212;42.688;22.176;2023-01-15T06:58:11;95.45;;;49.53;;
69892;SDS011;61212;42.688;22.176;2023-01-15T07:00:37;92.38;;;48.05;;
69892;SDS011;61212;42.688;22.176;2023-01-15T07:03:07;92.45;;;48.15;;
69892;SDS011;61212;42.688;22.176;2023-01-15T07:05:33;87.28;;;45.45;;
69892;SDS011;61212;42.688;22.176;2023-01-15T07:07:59;92.15;;;49.65;;
69892;SDS011;61212;42.688;22.176;2023-01-15T07:10:25;87.13;;;48.08;;
69892;SDS011;61212;42.688;22.176;2023-01-15T07:12:53;103.03;;;51.20;;
69892;SDS011;61212;42.688;22.176;2023-01-15T07:15:19;96.60;;;52.35;;
69892;SDS011;61212;42.688;22.176;2023-01-15T07:17:52;95.30;;;50.25;;
69892;SDS011;61212;42.688;22.176;2023-01-15T07:20:19;105.45;;;52.88;;
69892;SDS011;61212;42.688;22.176;2023-01-15T07:22:52;86.63;;;45.60;;
69892;SDS011;61212;42.688;22.176;2023-01-15T07:25:18;82.33;;;42.73;;
69892;SDS011;61212;42.688;22.176;2023-01-15T07:27:45;79.07;;;40.28;;
69892;SDS011;61212;42.688;22.176;2023-01-15T07:30:23;70.78;;;36.05;;
69892;SDS011;61212;42.688;22.176;2023-01-15T07:38:10;77.90;;;42.35;;
69892;SDS011;61212;42.688;22.176;2023-01-15T07:40:54;80.72;;;41.70;;
69892;SDS011;61212;42.688;22.176;2023-01-15T07:43:32;92.28;;;46.33;;
69892;SDS011;61212;42.688;22.176;2023-01-15T07:46:17;81.30;;;48.53;;
69892;SDS011;61212;42.688;22.176;2023-01-15T07:49:02;56.38;;;31.17;;
69892;SDS011;61212;42.688;22.176;2023-01-15T07:51:49;25.52;;;13.98;;
69892;SDS011;61212;42.688;22.176;2023-01-15T07:54:15;23.52;;;12.55;;
69892;SDS011;61212;42.688;22.176;2023-01-15T07:56:41;22.70;;;11.90;;
69892;SDS011;61212;42.688;22.176;2023-01-15T07:59:07;19.83;;;11.38;;
69892;SDS011;61212;42.688;22.176;2023-01-15T08:01:33;18.70;;;11.10;;
69892;SDS011;61212;42.688;22.176;2023-01-15T08:03:59;16.60;;;9.27;;
69892;SDS011;61212;42.688;22.176;2023-01-15T08:06:25;20.38;;;11.25;;
69892;SDS011;61212;42.688;22.176;2023-01-15T08:08:51;19.48;;;10.95;;
69892;SDS011;61212;42.688;22.176;2023-01-15T08:11:17;16.55;;;10.80;;
69892;SDS011;61212;42.688;22.176;2023-01-15T08:14:03;23.80;;;11.95;;
69892;SDS011;61212;42.688;22.176;2023-01-15T08:16:48;23.65;;;12.95;;
69892;SDS011;61212;42.688;22.176;2023-01-15T08:19:14;20.17;;;11.80;;
69892;SDS011;61212;42.688;22.176;2023-01-15T08:21:40;17.30;;;9.60;;
69892;SDS011;61212;42.688;22.176;2023-01-15T08:24:08;19.48;;;10.48;;
69892;SDS011;61212;42.688;22.176;2023-01-15T08:26:34;18.85;;;10.70;;
69892;SDS011;61212;42.688;22.176;2023-01-15T08:29:00;18.15;;;10.00;;
69892;SDS011;61212;42.688;22.176;2023-01-15T08:31:26;17.23;;;9.45;;
69892;SDS011;61212;42.688;22.176;2023-01-15T08:37:12;15.55;;;8.93;;
69892;SDS011;61212;42.688;22.176;2023-01-15T08:39:38;16.52;;;9.13;;
69892;SDS011;61212;42.688;22.176;2023-01-15T08:50:08;31.77;;;16.55;;
69892;SDS011;61212;42.688;22.176;2023-01-15T08:52:34;44.72;;;24.65;;
69892;SDS011;61212;42.688;22.176;2023-01-15T08:55:02;33.28;;;20.27;;
69892;SDS011;61212;42.688;22.176;2023-01-15T08:57:28;35.72;;;22.08;;
69892;SDS011;61212;42.688;22.176;2023-01-15T09:03:05;33.42;;;20.58;;
69892;SDS011;61212;42.688;22.176;2023-01-15T09:14:32;18.90;;;11.00;;
69892;SDS011;61212;42.688;22.176;2023-01-15T09:16:58;17.27;;;9.77;;
69892;SDS011;61212;42.688;22.176;2023-01-15T09:19:24;23.55;;;12.00;;
69892;SDS011;61212;42.688;22.176;2023-01-15T09:21:50;16.85;;;9.77;;
69892;SDS011;61212;42.688;22.176;2023-01-15T09:24:16;18.48;;;11.02;;
69892;SDS011;61212;42.688;22.176;2023-01-15T09:26:42;23.10;;;11.48;;
69892;SDS011;61212;42.688;22.176;2023-01-15T09:29:08;18.65;;;10.40;;
69892;SDS011;61212;42.688;22.176;2023-01-15T09:31:35;53.17;;;29.35;;
69892;SDS011;61212;42.688;22.176;2023-01-15T09:34:01;21.02;;;10.30;;
69892;SDS011;61212;42.688;22.176;2023-01-15T09:36:31;19.02;;;11.68;;
69892;SDS011;61212;42.688;22.176;2023-01-15T09:38:58;16.98;;;9.38;;
69892;SDS011;61212;42.688;22.176;2023-01-15T09:41:24;19.30;;;12.45;;
69892;SDS011;61212;42.688;22.176;2023-01-15T09:44:17;18.95;;;11.32;;
69892;SDS011;61212;42.688;22.176;2023-01-15T09:57:13;14.48;;;8.65;;
69892;SDS011;61212;42.688;22.176;2023-01-15T09:59:42;16.90;;;9.98;;
69892;SDS011;61212;42.688;22.176;2023-01-15T10:02:18;15.70;;;9.07;;
69892;SDS011;61212;42.688;22.176;2023-01-15T10:04:47;20.15;;;12.38;;
69892;SDS011;61212;42.688;22.176;2023-01-15T10:07:35;23.55;;;14.23;;
69892;SDS011;61212;42.688;22.176;2023-01-15T10:10:05;30.65;;;16.30;;
69892;SDS011;61212;42.688;22.176;2023-01-15T10:12:34;20.45;;;13.20;;
69892;SDS011;61212;42.688;22.176;2023-01-15T10:17:27;27.17;;;16.73;;
69892;SDS011;61212;42.688;22.176;2023-01-15T10:19:55;22.45;;;14.45;;
69892;SDS011;61212;42.688;22.176;2023-01-15T10:24:57;56.70;;;27.10;;
69892;SDS011;61212;42.688;22.176;2023-01-15T10:27:24;20.13;;;10.13;;
69892;SDS011;61212;42.688;22.176;2023-01-15T10:32:55;67.78;;;40.72;;
69892;SDS011;61212;42.688;22.176;2023-01-15T10:45:43;82.85;;;37.13;;
69892;SDS011;61212;42.688;22.176;2023-01-15T10:51:13;28.85;;;15.35;;
69892;SDS011;61212;42.688;22.176;2023-01-15T10:53:41;27.42;;;15.32;;
69892;SDS011;61212;42.688;22.176;2023-01-15T10:56:14;19.17;;;11.55;;
69892;SDS011;61212;42.688;22.176;2023-01-15T10:58:47;87.78;;;31.60;;
69892;SDS011;61212;42.688;22.176;2023-01-15T11:03:43;24.75;;;14.60;;
69892;SDS011;61212;42.688;22.176;2023-01-15T11:06:14;34.00;;;20.67;;
69892;SDS011;61212;42.688;22.176;2023-01-15T11:08:41;33.30;;;18.25;;
69892;SDS011;61212;42.688;22.176;2023-01-15T11:11:26;50.78;;;25.25;;
69892;SDS011;61212;42.688;22.176;2023-01-15T11:14:39;32.15;;;18.58;;
69892;SDS011;61212;42.688;22.176;2023-01-15T11:17:29;29.52;;;17.35;;
69892;SDS011;61212;42.688;22.176;2023-01-15T11:22:41;22.05;;;13.35;;
69892;SDS011;61212;42.688;22.176;2023-01-15T11:25:07;26.60;;;16.77;;
69892;SDS011;61212;42.688;22.176;2023-01-15T11:27:35;40.78;;;24.50;;
69892;SDS011;61212;42.688;22.176;2023-01-15T11:30:03;36.25;;;22.02;;
69892;SDS011;61212;42.688;22.176;2023-01-15T11:32:31;78.90;;;28.52;;
69892;SDS011;61212;42.688;22.176;2023-01-15T11:34:59;32.10;;;15.48;;
69892;SDS011;61212;42.688;22.176;2023-01-15T11:37:25;28.10;;;13.55;;
69892;SDS011;61212;42.688;22.176;2023-01-15T11:40:00;69.47;;;22.55;;
69892;SDS011;61212;42.688;22.176;2023-01-15T11:42:32;26.50;;;15.40;;
69892;SDS011;61212;42.688;22.176;2023-01-15T11:45:20;24.98;;;14.75;;
69892;SDS011;61212;42.688;22.176;2023-01-15T11:48:13;109.47;;;27.48;;
69892;SDS011;61212;42.688;22.176;2023-01-15T11:51:04;64.13;;;19.75;;
69892;SDS011;61212;42.688;22.176;2023-01-15T11:53:31;28.63;;;12.75;;
69892;SDS011;61212;42.688;22.176;2023-01-15T11:56:03;17.38;;;10.80;;
69892;SDS011;61212;42.688;22.176;2023-01-15T11:58:31;25.63;;;14.52;;
69892;SDS011;61212;42.688;22.176;2023-01-15T12:00:58;37.65;;;19.17;;
69892;SDS011;61212;42.688;22.176;2023-01-15T12:03:25;72.13;;;35.65;;
69892;SDS011;61212;42.688;22.176;2023-01-15T12:06:01;29.05;;;16.73;;
69892;SDS011;61212;42.688;22.176;2023-01-15T12:11:12;20.73;;;12.93;;
69892;SDS011;61212;42.688;22.176;2023-01-15T12:16:15;21.85;;;12.80;;
69892;SDS011;61212;42.688;22.176;2023-01-15T12:21:22;24.25;;;13.82;;
69892;SDS011;61212;42.688;22.176;2023-01-15T12:26:36;27.35;;;14.57;;
69892;SDS011;61212;42.688;22.176;2023-01-15T12:29:12;26.15;;;14.45;;
69892;SDS011;61212;42.688;22.176;2023-01-15T12:32:03;19.27;;;12.50;;
69892;SDS011;61212;42.688;22.176;2023-01-15T12:34:30;22.17;;;12.20;;
69892;SDS011;61212;42.688;22.176;2023-01-15T12:42:02;29.67;;;16.05;;
69892;SDS011;61212;42.688;22.176;2023-01-15T12:44:50;27.30;;;16.40;;
69892;SDS011;61212;42.688;22.176;2023-01-15T12:52:32;19.35;;;11.55;;
69892;SDS011;61212;42.688;22.176;2023-01-15T12:55:03;25.60;;;13.95;;
69892;SDS011;61212;42.688;22.176;2023-01-15T12:57:35;16.67;;;9.65;;
69892;SDS011;61212;42.688;22.176;2023-01-15T13:03:14;29.17;;;13.77;;
69892;SDS011;61212;42.688;22.176;2023-01-15T13:05:45;33.92;;;16.30;;
69892;SDS011;61212;42.688;22.176;2023-01-15T13:10:40;35.50;;;17.30;;
69892;SDS011;61212;42.688;22.176;2023-01-15T13:13:25;26.80;;;15.73;;
69892;SDS011;61212;42.688;22.176;2023-01-15T13:18:36;15.13;;;9.18;;
69892;SDS011;61212;42.688;22.176;2023-01-15T13:21:12;30.13;;;17.30;;
69892;SDS011;61212;42.688;22.176;2023-01-15T13:26:06;42.58;;;27.08;;
69892;SDS011;61212;42.688;22.176;2023-01-15T13:28:42;54.92;;;31.48;;
69892;SDS011;61212;42.688;22.176;2023-01-15T13:34:00;12.82;;;7.93;;
69892;SDS011;61212;42.688;22.176;2023-01-15T13:36:31;12.40;;;7.75;;
69892;SDS011;61212;42.688;22.176;2023-01-15T13:38:59;25.50;;;14.30;;
69892;SDS011;61212;42.688;22.176;2023-01-15T13:41:27;31.15;;;17.77;;
69892;SDS011;61212;42.688;22.176;2023-01-15T13:46:41;29.20;;;13.85;;
69892;SDS011;61212;42.688;22.176;2023-01-15T13:49:18;25.50;;;15.73;;
69892;SDS011;61212;42.688;22.176;2023-01-15T13:51:47;23.17;;;14.02;;
69892;SDS011;61212;42.688;22.176;2023-01-15T13:54:15;57.63;;;30.88;;
69892;SDS011;61212;42.688;22.176;2023-01-15T13:56:42;35.80;;;17.98;;
69892;SDS011;61212;42.688;22.176;2023-01-15T14:02:20;28.90;;;9.70;;
69892;SDS011;61212;42.688;22.176;2023-01-15T14:04:48;34.00;;;16.92;;
69892;SDS011;61212;42.688;22.176;2023-01-15T14:07:47;20.17;;;10.35;;
69892;SDS011;61212;42.688;22.176;2023-01-15T14:10:32;50.65;;;26.40;;
69892;SDS011;61212;42.688;22.176;2023-01-15T14:26:16;26.80;;;15.52;;
69892;SDS011;61212;42.688;22.176;2023-01-15T14:39:31;30.45;;;17.52;;
69892;SDS011;61212;42.688;22.176;2023-01-15T14:42:03;25.50;;;15.40;;
69892;SDS011;61212;42.688;22.176;2023-01-15T14:44:54;30.77;;;19.63;;
69892;SDS011;61212;42.688;22.176;2023-01-15T14:52:45;68.82;;;36.45;;
69892;SDS011;61212;42.688;22.176;2023-01-15T14:55:12;53.38;;;30.00;;
69892;SDS011;61212;42.688;22.176;2023-01-15T14:57:40;48.80;;;25.80;;
69892;SDS011;61212;42.688;22.176;2023-01-15T15:00:07;33.97;;;18.77;;
69892;SDS011;61212;42.688;22.176;2023-01-15T15:02:38;30.30;;;17.17;;
69892;SDS011;61212;42.688;22.176;2023-01-15T15:05:04;119.28;;;60.60;;
69892;SDS011;61212;42.688;22.176;2023-01-15T15:07:41;213.27;;;107.10;;
69892;SDS011;61212;42.688;22.176;2023-01-15T15:12:59;333.92;;;170.50;;
69892;SDS011;61212;42.688;22.176;2023-01-15T15:18:12;142.13;;;70.72;;
69892;SDS011;61212;42.688;22.176;2023-01-15T15:20:50;71.70;;;35.78;;
69892;SDS011;61212;42.688;22.176;2023-01-15T15:23:23;99.30;;;50.80;;
69892;SDS011;61212;42.688;22.176;2023-01-15T15:25:55;104.22;;;52.70;;
69892;SDS011;61212;42.688;22.176;2023-01-15T15:28:21;84.75;;;44.25;;
69892;SDS011;61212;42.688;22.176;2023-01-15T15:30:47;83.43;;;44.30;;
69892;SDS011;61212;42.688;22.176;2023-01-15T15:33:20;48.38;;;27.65;;
69892;SDS011;61212;42.688;22.176;2023-01-15T15:35:51;45.17;;;23.27;;
69892;SDS011;61212;42.688;22.176;2023-01-15T15:38:18;39.78;;;23.05;;
69892;SDS011;61212;42.688;22.176;2023-01-15T15:40:46;47.65;;;27.67;;
69892;SDS011;61212;42.688;22.176;2023-01-15T15:45:58;48.85;;;29.05;;
69892;SDS011;61212;42.688;22.176;2023-01-15T15:48:43;56.25;;;30.02;;
69892;SDS011;61212;42.688;22.176;2023-01-15T15:53:44;52.88;;;27.58;;
69892;SDS011;61212;42.688;22.176;2023-01-15T15:56:11;56.38;;;31.50;;
69892;SDS011;61212;42.688;22.176;2023-01-15T15:58:37;100.95;;;50.92;;
69892;SDS011;61212;42.688;22.176;2023-01-15T16:01:04;70.32;;;38.60;;
69892;SDS011;61212;42.688;22.176;2023-01-15T16:03:31;62.97;;;33.05;;
69892;SDS011;61212;42.688;22.176;2023-01-15T16:06:05;64.35;;;34.55;;
69892;SDS011;61212;42.688;22.176;2023-01-15T16:08:32;69.40;;;35.55;;
69892;SDS011;61212;42.688;22.176;2023-01-15T16:11:03;59.35;;;31.55;;
69892;SDS011;61212;42.688;22.176;2023-01-15T16:13:49;55.08;;;29.17;;
69892;SDS011;61212;42.688;22.176;2023-01-15T16:16:16;53.33;;;28.38;;
69892;SDS011;61212;42.688;22.176;2023-01-15T16:18:44;64.15;;;35.63;;
69892;SDS011;61212;42.688;22.176;2023-01-15T16:21:16;67.13;;;35.78;;
69892;SDS011;61212;42.688;22.176;2023-01-15T16:23:42;69.20;;;38.45;;
69892;SDS011;61212;42.688;22.176;2023-01-15T16:26:20;74.82;;;40.33;;
69892;SDS011;61212;42.688;22.176;2023-01-15T16:28:51;60.97;;;36.97;;
69892;SDS011;61212;42.688;22.176;2023-01-15T16:31:19;60.28;;;36.60;;
69892;SDS011;61212;42.688;22.176;2023-01-15T16:33:46;45.30;;;27.52;;
69892;SDS011;61212;42.688;22.176;2023-01-15T16:36:17;38.63;;;19.35;;
69892;SDS011;61212;42.688;22.176;2023-01-15T16:38:46;38.45;;;20.25;;
69892;SDS011;61212;42.688;22.176;2023-01-15T16:41:19;38.78;;;22.73;;
69892;SDS011;61212;42.688;22.176;2023-01-15T16:43:52;46.70;;;24.52;;
69892;SDS011;61212;42.688;22.176;2023-01-15T16:46:19;68.18;;;38.35;;
69892;SDS011;61212;42.688;22.176;2023-01-15T16:48:46;69.75;;;33.58;;
69892;SDS011;61212;42.688;22.176;2023-01-15T16:53:58;49.45;;;28.80;;
69892;SDS011;61212;42.688;22.176;2023-01-15T16:59:13;48.38;;;26.88;;
69892;SDS011;61212;42.688;22.176;2023-01-15T17:01:43;57.92;;;32.20;;
69892;SDS011;61212;42.688;22.176;2023-01-15T17:04:18;61.00;;;31.33;;
69892;SDS011;61212;42.688;22.176;2023-01-15T17:06:52;54.67;;;31.45;;
69892;SDS011;61212;42.688;22.176;2023-01-15T17:09:19;45.35;;;26.00;;
69892;SDS011;61212;42.688;22.176;2023-01-15T17:11:48;32.33;;;18.10;;
69892;SDS011;61212;42.688;22.176;2023-01-15T17:14:24;32.15;;;17.13;;
69892;SDS011;61212;42.688;22.176;2023-01-15T17:19:35;34.70;;;20.55;;
69892;SDS011;61212;42.688;22.176;2023-01-15T17:22:01;38.67;;;22.02;;
69892;SDS011;61212;42.688;22.176;2023-01-15T17:24:27;61.60;;;30.98;;
69892;SDS011;61212;42.688;22.176;2023-01-15T17:26:53;51.10;;;31.38;;
69892;SDS011;61212;42.688;22.176;2023-01-15T17:32:33;58.67;;;29.63;;